Time;durP1;ratioP1;P1;durP2;ratioP2;P2;SDS_P1;SDS_P2;PMS_P1;PMS_P2;Temp;Humidity;BMP_temperature;BMP_pressure;BME280_temperature;BME280_humidity;BME280_pressure;Samples;Min_cycle;Max_cycle;Signal;HPM_P1;HPM_P2
2021/12/04 00:02:21;;;;;;;62.15;22.10;;;;;;;;;;5040205;28;20032;-43
2021/12/04 00:04:49;;;;;;;49.75;21.83;;;;;;;;;;5036155;28;20085;-46
2021/12/04 00:07:15;;;;;;;59.47;25.50;;;;;;;;;;5032541;28;20069;-46
2021/12/04 00:09:44;;;;;;;57.85;23.98;;;;;;;;;;5033474;28;20033;-44
2021/12/04 00:12:10;;;;;;;58.90;22.92;;;;;;;;;;5033714;28;20133;-45
2021/12/04 00:14:36;;;;;;;49.75;19.77;;;;;;;;;;5033611;28;20499;-43
2021/12/04 00:17:02;;;;;;;58.50;24.13;;;;;;;;;;5032948;28;20040;-44
2021/12/04 00:19:28;;;;;;;57.45;23.13;;;;;;;;;;5029687;28;20412;-43
2021/12/04 00:21:54;;;;;;;55.25;23.63;;;;;;;;;;5028283;28;20037;-45
2021/12/04 00:24:19;;;;;;;73.03;26.52;;;;;;;;;;5032721;28;20041;-44
2021/12/04 00:26:45;;;;;;;79.82;27.95;;;;;;;;;;5037877;28;20040;-43
2021/12/04 00:29:11;;;;;;;79.45;26.92;;;;;;;;;;5034202;28;20068;-42
2021/12/04 00:31:37;;;;;;;81.20;25.73;;;;;;;;;;5038566;28;20057;-44
2021/12/04 00:34:02;;;;;;;55.80;22.70;;;;;;;;;;5037106;28;20033;-43
2021/12/04 00:49:59;;;;;;;19.88;14.27;;;;;;;;;;5019967;28;20044;-43
2021/12/04 00:52:24;;;;;;;27.08;15.90;;;;;;;;;;5015620;28;20394;-44
2021/12/04 00:54:49;;;;;;;27.75;15.10;;;;;;;;;;5020403;28;20131;-43
2021/12/04 00:57:14;;;;;;;22.65;15.25;;;;;;;;;;5022347;28;20061;-43
2021/12/04 00:59:40;;;;;;;31.92;15.50;;;;;;;;;;5017610;28;21895;-44
2021/12/04 01:02:05;;;;;;;25.08;15.48;;;;;;;;;;5016472;28;20034;-43
2021/12/04 01:04:30;;;;;;;24.15;15.88;;;;;;;;;;5018218;28;20038;-44
2021/12/04 01:06:56;;;;;;;46.03;18.25;;;;;;;;;;5021834;28;20072;-43
2021/12/04 01:09:22;;;;;;;34.97;18.23;;;;;;;;;;5018577;28;20068;-45
2021/12/04 01:11:48;;;;;;;62.03;21.83;;;;;;;;;;5016618;28;20805;-44
2021/12/04 01:14:14;;;;;;;71.68;21.23;;;;;;;;;;5014980;28;20515;-43
2021/12/04 01:16:40;;;;;;;100.35;25.55;;;;;;;;;;5011460;28;20128;-43
2021/12/04 01:19:06;;;;;;;130.35;26.52;;;;;;;;;;5015088;28;20537;-45
2021/12/04 01:21:31;;;;;;;81.68;22.98;;;;;;;;;;5021123;28;20045;-44
2021/12/04 01:23:56;;;;;;;115.35;23.30;;;;;;;;;;5018989;28;20116;-43
2021/12/04 01:26:23;;;;;;;73.63;22.70;;;;;;;;;;5016885;28;20034;-43
2021/12/04 01:28:48;;;;;;;64.07;21.50;;;;;;;;;;5020343;28;20040;-43
2021/12/04 01:31:13;;;;;;;69.32;21.08;;;;;;;;;;5014312;28;20029;-43
2021/12/04 01:33:38;;;;;;;84.78;21.60;;;;;;;;;;5021460;28;20041;-43
2021/12/04 01:36:04;;;;;;;70.15;19.80;;;;;;;;;;5019026;28;20041;-43
2021/12/04 01:38:29;;;;;;;87.10;20.38;;;;;;;;;;5016984;28;20033;-44
2021/12/04 01:40:54;;;;;;;64.88;18.55;;;;;;;;;;5023382;28;20069;-45
2021/12/04 01:43:19;;;;;;;73.22;19.23;;;;;;;;;;5017029;28;20485;-43
2021/12/04 01:45:45;;;;;;;70.00;19.30;;;;;;;;;;5022220;28;20037;-41
2021/12/04 01:48:10;;;;;;;67.13;16.42;;;;;;;;;;5019285;28;20033;-42
2021/12/04 01:50:36;;;;;;;37.55;15.75;;;;;;;;;;5020347;28;20471;-43
2021/12/04 01:53:02;;;;;;;49.28;16.80;;;;;;;;;;5020838;28;20505;-44
2021/12/04 01:55:28;;;;;;;52.40;17.75;;;;;;;;;;5023383;28;20033;-44
2021/12/04 01:57:54;;;;;;;29.55;16.23;;;;;;;;;;5023442;28;20393;-43
2021/12/04 02:00:19;;;;;;;25.25;16.10;;;;;;;;;;5023983;28;20095;-43
2021/12/04 02:02:45;;;;;;;23.85;16.63;;;;;;;;;;5019574;28;20038;-44
2021/12/04 02:05:10;;;;;;;23.95;15.80;;;;;;;;;;5022488;28;20152;-42
2021/12/04 02:07:35;;;;;;;21.92;15.98;;;;;;;;;;5021112;28;20679;-44
2021/12/04 02:10:03;;;;;;;28.00;17.40;;;;;;;;;;5018176;28;20696;-43
2021/12/04 02:12:28;;;;;;;24.08;17.35;;;;;;;;;;5021684;28;20052;-43
2021/12/04 02:14:53;;;;;;;22.02;16.33;;;;;;;;;;5016752;28;20037;-43
2021/12/04 02:17:19;;;;;;;27.15;17.08;;;;;;;;;;5024752;28;20037;-43
2021/12/04 02:19:47;;;;;;;29.95;18.45;;;;;;;;;;5023225;28;20060;-44
2021/12/04 02:22:12;;;;;;;27.02;19.00;;;;;;;;;;5022034;28;20033;-43
2021/12/04 02:24:38;;;;;;;34.67;19.83;;;;;;;;;;5024036;28;20037;-44
2021/12/04 02:27:03;;;;;;;28.45;19.08;;;;;;;;;;5020819;28;20034;-44
2021/12/04 02:29:28;;;;;;;25.10;17.48;;;;;;;;;;5022274;28;20100;-43
2021/12/04 02:31:55;;;;;;;22.60;17.35;;;;;;;;;;5022889;28;20061;-43
2021/12/04 02:34:30;;;;;;;26.58;17.67;;;;;;;;;;5012319;28;20042;-43
2021/12/04 02:36:57;;;;;;;29.08;18.30;;;;;;;;;;5018772;28;20037;-45
2021/12/04 02:39:24;;;;;;;25.25;17.35;;;;;;;;;;5034828;28;20040;-43
2021/12/04 02:41:50;;;;;;;25.35;17.30;;;;;;;;;;5036579;28;20088;-44
2021/12/04 02:44:15;;;;;;;27.60;17.83;;;;;;;;;;5018265;28;20037;-42
2021/12/04 02:46:40;;;;;;;25.30;16.33;;;;;;;;;;5026068;28;20061;-44
2021/12/04 02:49:07;;;;;;;21.77;15.65;;;;;;;;;;5017093;28;20129;-45
2021/12/04 02:51:32;;;;;;;21.42;15.52;;;;;;;;;;5022347;28;20038;-43
2021/12/04 02:53:58;;;;;;;24.80;16.42;;;;;;;;;;5018299;28;20056;-43
2021/12/04 02:56:25;;;;;;;22.15;15.93;;;;;;;;;;5021521;28;20037;-43
2021/12/04 02:58:54;;;;;;;18.73;13.68;;;;;;;;;;5020587;28;20038;-43
2021/12/04 03:01:19;;;;;;;19.42;14.70;;;;;;;;;;5017945;28;20046;-43
2021/12/04 03:03:44;;;;;;;19.98;14.23;;;;;;;;;;5022412;28;20041;-43
2021/12/04 03:06:10;;;;;;;23.05;15.30;;;;;;;;;;5019516;28;20057;-44
2021/12/04 03:08:35;;;;;;;22.83;15.30;;;;;;;;;;5019613;28;20044;-43
2021/12/04 03:11:00;;;;;;;20.27;13.27;;;;;;;;;;5017715;28;20036;-43
2021/12/04 03:13:26;;;;;;;22.58;15.27;;;;;;;;;;5019479;28;20037;-43
2021/12/04 03:15:58;;;;;;;19.77;14.65;;;;;;;;;;5020284;28;20152;-43
2021/12/04 03:18:24;;;;;;;21.88;14.52;;;;;;;;;;5017466;28;20121;-43
2021/12/04 03:20:52;;;;;;;22.38;15.23;;;;;;;;;;5023048;28;20464;-43
2021/12/04 03:23:26;;;;;;;21.42;15.10;;;;;;;;;;5020858;28;20045;-43
2021/12/04 03:25:53;;;;;;;19.80;13.45;;;;;;;;;;5023192;28;20113;-43
2021/12/04 03:28:19;;;;;;;22.48;14.63;;;;;;;;;;5016291;28;20087;-43
2021/12/04 03:30:50;;;;;;;20.25;13.68;;;;;;;;;;5024902;28;20442;-43
2021/12/04 03:41:18;;;;;;;21.45;13.88;;;;;;;;;;5035447;28;20132;-43
2021/12/04 03:43:44;;;;;;;24.90;13.68;;;;;;;;;;5039754;28;20500;-43
2021/12/04 03:46:13;;;;;;;21.40;13.75;;;;;;;;;;5039930;28;20049;-43
2021/12/04 03:48:50;;;;;;;17.30;13.07;;;;;;;;;;5038407;28;20040;-46
2021/12/04 03:51:16;;;;;;;18.10;12.80;;;;;;;;;;5018691;28;20397;-44
2021/12/04 03:53:41;;;;;;;20.63;13.20;;;;;;;;;;5039180;28;20063;-44
2021/12/04 03:56:06;;;;;;;21.63;13.80;;;;;;;;;;5041328;28;20044;-45
2021/12/04 03:58:32;;;;;;;19.42;11.57;;;;;;;;;;5042137;28;20087;-44
2021/12/04 04:00:57;;;;;;;18.17;13.02;;;;;;;;;;5037126;28;20040;-44
2021/12/04 04:03:25;;;;;;;20.92;12.27;;;;;;;;;;5027726;28;20037;-45
2021/12/04 04:05:50;;;;;;;15.82;11.10;;;;;;;;;;5033102;28;20037;-43
2021/12/04 04:08:16;;;;;;;17.20;11.25;;;;;;;;;;5034558;28;20676;-42
2021/12/04 04:10:43;;;;;;;16.90;10.25;;;;;;;;;;5037168;28;20057;-45
2021/12/04 04:13:11;;;;;;;19.48;11.68;;;;;;;;;;5032087;28;20044;-44
2021/12/04 04:15:36;;;;;;;15.32;11.32;;;;;;;;;;5042069;28;20041;-43
2021/12/04 04:18:01;;;;;;;17.40;11.13;;;;;;;;;;5043778;28;20136;-43
2021/12/04 04:20:27;;;;;;;15.48;11.75;;;;;;;;;;5035475;28;20042;-44
2021/12/04 04:22:52;;;;;;;14.95;11.10;;;;;;;;;;5035176;28;20032;-43
2021/12/04 04:25:17;;;;;;;17.65;11.15;;;;;;;;;;5040280;28;20037;-44
2021/12/04 04:27:43;;;;;;;19.33;12.00;;;;;;;;;;5040141;28;20136;-43
2021/12/04 04:30:14;;;;;;;19.27;11.15;;;;;;;;;;5040335;28;20420;-43
2021/12/04 04:32:40;;;;;;;21.77;11.13;;;;;;;;;;5041775;28;20036;-43
2021/12/04 04:35:11;;;;;;;15.07;10.45;;;;;;;;;;5033088;28;20055;-43
2021/12/04 04:59:45;;;;;;;23.92;13.70;;;;;;;;;;5030524;28;20051;-43
2021/12/04 05:20:47;;;;;;;6.03;4.53;;;;;;;;;;5020581;28;20389;-43
2021/12/04 05:23:13;;;;;;;7.40;3.53;;;;;;;;;;5041036;28;20037;-43
2021/12/04 05:25:38;;;;;;;4.00;2.38;;;;;;;;;;5040210;28;20115;-43
2021/12/04 05:28:04;;;;;;;2.47;2.10;;;;;;;;;;5041739;28;20032;-43
2021/12/04 05:30:29;;;;;;;6.38;2.00;;;;;;;;;;5039176;28;20510;-44
2021/12/04 05:32:54;;;;;;;1.60;1.10;;;;;;;;;;5038774;28;20481;-43
2021/12/04 05:35:21;;;;;;;1.73;1.50;;;;;;;;;;5041807;28;20045;-43
2021/12/04 05:37:46;;;;;;;1.50;1.13;;;;;;;;;;5041237;28;20063;-43
2021/12/04 05:40:13;;;;;;;1.55;1.25;;;;;;;;;;5047379;28;20037;-44
2021/12/04 05:42:38;;;;;;;1.10;1.00;;;;;;;;;;5039372;28;20037;-43
2021/12/04 05:45:07;;;;;;;0.60;0.55;;;;;;;;;;5047458;28;20051;-43
2021/12/04 05:47:41;;;;;;;2.17;1.10;;;;;;;;;;5042962;28;20389;-45
2021/12/04 05:50:22;;;;;;;1.00;0.85;;;;;;;;;;5043463;28;20064;-43
2021/12/04 05:55:18;;;;;;;1.38;1.20;;;;;;;;;;5024250;28;20033;-43
2021/12/04 05:57:43;;;;;;;1.02;0.70;;;;;;;;;;5020602;28;20084;-45
2021/12/04 06:00:11;;;;;;;1.00;0.90;;;;;;;;;;5022593;28;20046;-45
2021/12/04 06:02:37;;;;;;;4.10;0.98;;;;;;;;;;5013367;28;20061;-43
2021/12/04 06:05:02;;;;;;;1.05;0.93;;;;;;;;;;5019864;28;20037;-45
2021/12/04 06:07:27;;;;;;;0.77;0.60;;;;;;;;;;5020470;28;20034;-44
2021/12/04 06:09:53;;;;;;;2.17;0.98;;;;;;;;;;5015996;28;20124;-43
2021/12/04 06:12:18;;;;;;;1.88;1.15;;;;;;;;;;5021831;28;20141;-44
2021/12/04 06:14:45;;;;;;;2.80;1.30;;;;;;;;;;5020263;28;20524;-43
2021/12/04 06:17:11;;;;;;;1.52;0.80;;;;;;;;;;5023733;28;20117;-43
2021/12/04 06:22:37;;;;;;;0.77;0.60;;;;;;;;;;5003777;28;20046;-44
2021/12/04 06:25:03;;;;;;;4.00;0.70;;;;;;;;;;5021370;28;20493;-44
2021/12/04 06:27:28;;;;;;;3.28;0.60;;;;;;;;;;5022281;28;20041;-44
2021/12/04 06:29:54;;;;;;;1.45;1.35;;;;;;;;;;5022795;28;20078;-43
2021/12/04 06:32:20;;;;;;;1.05;0.60;;;;;;;;;;5025428;28;20042;-43
2021/12/04 06:34:45;;;;;;;2.58;0.90;;;;;;;;;;5021775;28;20037;-43
2021/12/04 06:37:10;;;;;;;1.50;0.77;;;;;;;;;;5021601;28;20036;-43
2021/12/04 06:39:36;;;;;;;1.77;0.60;;;;;;;;;;5018836;28;20037;-43
2021/12/04 06:42:01;;;;;;;1.90;0.60;;;;;;;;;;5024759;28;20037;-45
2021/12/04 06:44:27;;;;;;;1.65;0.50;;;;;;;;;;5017979;28;20030;-43
2021/12/04 06:46:54;;;;;;;0.90;0.60;;;;;;;;;;5037614;28;20040;-43
2021/12/04 06:49:23;;;;;;;1.77;0.75;;;;;;;;;;5020579;28;20037;-42
2021/12/04 06:51:52;;;;;;;3.17;0.70;;;;;;;;;;5021384;28;20046;-43
2021/12/04 06:54:32;;;;;;;3.78;1.67;;;;;;;;;;5044019;28;20072;-43
2021/12/04 06:56:57;;;;;;;3.03;1.40;;;;;;;;;;5040110;28;20497;-43
2021/12/04 06:59:27;;;;;;;1.00;0.90;;;;;;;;;;5042194;28;20041;-45
2021/12/04 07:01:52;;;;;;;1.65;0.68;;;;;;;;;;5037875;28;20048;-46
2021/12/04 07:04:19;;;;;;;2.95;1.20;;;;;;;;;;5015086;28;20029;-45
2021/12/04 07:06:45;;;;;;;4.85;1.02;;;;;;;;;;5019943;28;20039;-44
2021/12/04 07:09:11;;;;;;;2.75;1.33;;;;;;;;;;4993705;28;20096;-43
2021/12/04 07:11:36;;;;;;;3.53;1.95;;;;;;;;;;5011588;28;20037;-45
2021/12/04 07:14:02;;;;;;;3.75;0.80;;;;;;;;;;5034156;28;20041;-43
2021/12/04 07:16:27;;;;;;;1.58;0.85;;;;;;;;;;5038857;28;20112;-43
2021/12/04 07:18:53;;;;;;;3.78;2.38;;;;;;;;;;5033048;28;20481;-45
2021/12/04 07:21:18;;;;;;;2.85;1.50;;;;;;;;;;5040601;28;20090;-44
2021/12/04 07:23:44;;;;;;;4.00;1.23;;;;;;;;;;5038039;28;20030;-43
2021/12/04 07:26:09;;;;;;;2.88;1.10;;;;;;;;;;5038229;28;20606;-43
2021/12/04 07:28:34;;;;;;;2.80;0.98;;;;;;;;;;5032389;28;20123;-44
2021/12/04 07:31:00;;;;;;;2.60;1.10;;;;;;;;;;5038790;28;20037;-44
2021/12/04 07:33:25;;;;;;;2.83;1.10;;;;;;;;;;5032581;28;20041;-44
2021/12/04 07:35:51;;;;;;;2.70;0.88;;;;;;;;;;5034347;28;20057;-44
2021/12/04 07:38:16;;;;;;;4.95;1.40;;;;;;;;;;5031222;28;20131;-44
2021/12/04 07:40:43;;;;;;;5.03;1.13;;;;;;;;;;5039989;28;20136;-44
2021/12/04 07:43:08;;;;;;;2.60;1.10;;;;;;;;;;5037594;28;20472;-42
2021/12/04 07:45:34;;;;;;;7.43;1.80;;;;;;;;;;5035026;28;20603;-43
2021/12/04 07:47:59;;;;;;;4.05;0.90;;;;;;;;;;5040896;28;20115;-43
2021/12/04 07:50:25;;;;;;;9.50;1.45;;;;;;;;;;5038060;28;20044;-43
2021/12/04 07:52:50;;;;;;;11.63;3.05;;;;;;;;;;5041731;28;20056;-43
2021/12/04 07:55:16;;;;;;;14.45;1.75;;;;;;;;;;5038452;28;20055;-44
2021/12/04 07:57:41;;;;;;;5.75;1.50;;;;;;;;;;5035049;28;20140;-45
2021/12/04 08:00:09;;;;;;;4.47;1.52;;;;;;;;;;5040860;28;20052;-43
2021/12/04 08:02:34;;;;;;;5.90;1.90;;;;;;;;;;5024898;28;20053;-51
2021/12/04 08:04:59;;;;;;;7.20;1.67;;;;;;;;;;5023298;28;20033;-43
2021/12/04 08:07:24;;;;;;;4.00;1.30;;;;;;;;;;5032778;28;20041;-43
2021/12/04 08:09:50;;;;;;;1.48;1.30;;;;;;;;;;5034058;28;20041;-44
2021/12/04 08:12:15;;;;;;;6.82;1.52;;;;;;;;;;5035750;28;20041;-43
2021/12/04 08:14:40;;;;;;;6.60;2.03;;;;;;;;;;5034834;28;20163;-42
2021/12/04 08:17:06;;;;;;;4.90;1.80;;;;;;;;;;5037861;28;20037;-43
2021/12/04 08:19:32;;;;;;;4.78;1.55;;;;;;;;;;5040227;28;20435;-43
2021/12/04 08:21:57;;;;;;;7.45;1.55;;;;;;;;;;5041299;28;20045;-43
2021/12/04 08:24:22;;;;;;;4.57;2.35;;;;;;;;;;5018602;28;20040;-43
2021/12/04 08:26:47;;;;;;;10.57;2.47;;;;;;;;;;5033533;28;20048;-42
2021/12/04 08:29:13;;;;;;;6.63;1.85;;;;;;;;;;5036050;28;20029;-43
2021/12/04 08:31:38;;;;;;;2.92;1.35;;;;;;;;;;5034468;28;20149;-43
2021/12/04 08:34:04;;;;;;;5.50;1.67;;;;;;;;;;5032664;28;20119;-42
2021/12/04 08:36:29;;;;;;;3.72;1.38;;;;;;;;;;5034481;28;20044;-42
2021/12/04 08:38:54;;;;;;;7.15;1.88;;;;;;;;;;5031691;28;20037;-42
2021/12/04 08:41:21;;;;;;;3.10;1.70;;;;;;;;;;5034666;28;20140;-42
2021/12/04 08:43:46;;;;;;;5.82;1.50;;;;;;;;;;5036577;28;20036;-43
2021/12/04 08:46:14;;;;;;;4.90;2.38;;;;;;;;;;5038394;28;20036;-42
2021/12/04 08:48:39;;;;;;;3.70;1.98;;;;;;;;;;5038469;28;20116;-44
2021/12/04 08:51:04;;;;;;;3.55;1.75;;;;;;;;;;5039923;28;20119;-42
2021/12/04 08:53:29;;;;;;;4.75;1.95;;;;;;;;;;5040690;28;20076;-43
2021/12/04 08:55:55;;;;;;;5.50;2.30;;;;;;;;;;5033954;28;20040;-43
2021/12/04 08:58:20;;;;;;;5.28;1.90;;;;;;;;;;5043217;28;20565;-42
2021/12/04 09:00:50;;;;;;;4.07;1.65;;;;;;;;;;5033198;28;20041;-42
2021/12/04 09:03:17;;;;;;;7.50;1.45;;;;;;;;;;5032236;28;20034;-43
2021/12/04 09:05:42;;;;;;;5.68;1.40;;;;;;;;;;5039536;28;20095;-43
2021/12/04 09:08:08;;;;;;;7.78;2.70;;;;;;;;;;5033971;28;20516;-42
2021/12/04 09:10:33;;;;;;;6.05;2.20;;;;;;;;;;5019162;28;21017;-42
2021/12/04 09:12:58;;;;;;;2.28;1.33;;;;;;;;;;5043679;28;20484;-42
2021/12/04 09:15:25;;;;;;;5.80;2.00;;;;;;;;;;5035107;28;20037;-42
2021/12/04 09:17:50;;;;;;;3.28;1.88;;;;;;;;;;5039584;28;20106;-44
2021/12/04 09:20:17;;;;;;;5.20;1.75;;;;;;;;;;5040488;28;20543;-42
2021/12/04 09:22:45;;;;;;;4.40;1.48;;;;;;;;;;5040184;28;20037;-44
2021/12/04 09:25:14;;;;;;;5.93;1.40;;;;;;;;;;5041395;28;20037;-42
2021/12/04 09:27:59;;;;;;;4.38;2.63;;;;;;;;;;5039192;28;20123;-42
2021/12/04 09:31:02;;;;;;;5.03;1.45;;;;;;;;;;5039676;28;20029;-42
2021/12/04 10:32:25;;;;;;;9.45;3.13;;;;;;;;;;5039191;28;20056;-42
2021/12/04 10:33:09;;;;;;;4.32;1.13;;;;;;;;;;5034593;28;20037;-43
2021/12/04 10:35:35;;;;;;;3.50;1.15;;;;;;;;;;5031458;28;20041;-43
2021/12/04 10:38:04;;;;;;;4.13;1.10;;;;;;;;;;5036271;28;20040;-43
2021/12/04 10:40:40;;;;;;;6.35;2.00;;;;;;;;;;5041465;28;20862;-44
2021/12/04 10:43:07;;;;;;;3.63;1.27;;;;;;;;;;5026030;28;20033;-42
2021/12/04 10:45:37;;;;;;;7.05;1.20;;;;;;;;;;5035178;28;20116;-43
2021/12/04 10:48:07;;;;;;;2.70;1.23;;;;;;;;;;5038966;28;20041;-43
2021/12/04 10:50:40;;;;;;;;;;;;;;;;;;5016711;28;20115;-43
2021/12/04 10:53:13;;;;;;;3.80;1.23;;;;;;;;;;5019368;28;20698;-43
2021/12/04 11:22:30;;;;;;;1.52;0.95;;;;;;;;;;5034197;28;20037;-43
2021/12/04 11:38:26;;;;;;;1.60;1.02;;;;;;;;;;5034034;28;20036;-46
2021/12/04 11:43:21;;;;;;;2.58;1.00;;;;;;;;;;5038651;28;20033;-43
2021/12/04 11:48:38;;;;;;;1.98;0.90;;;;;;;;;;5031064;28;20127;-43
2021/12/04 11:51:23;;;;;;;2.50;1.00;;;;;;;;;;5040229;28;20033;-44
2021/12/04 11:53:50;;;;;;;2.50;0.90;;;;;;;;;;5011729;28;20061;-43
2021/12/04 11:56:21;;;;;;;2.17;1.08;;;;;;;;;;5018739;28;20441;-43
2021/12/04 11:58:48;;;;;;;2.45;1.00;;;;;;;;;;5032062;28;20040;-44
2021/12/04 12:01:22;;;;;;;4.57;0.70;;;;;;;;;;4338107;28;10000611;-43
2021/12/04 12:03:52;;;;;;;2.47;0.60;;;;;;;;;;5036397;28;20033;-44
2021/12/04 12:06:27;;;;;;;2.47;1.20;;;;;;;;;;5030969;28;20034;-44
2021/12/04 12:08:59;;;;;;;2.05;0.85;;;;;;;;;;5036891;28;20059;-43
2021/12/04 12:11:26;;;;;;;1.95;0.93;;;;;;;;;;5034409;28;20040;-43
2021/12/04 12:13:56;;;;;;;8.02;1.45;;;;;;;;;;5039626;28;20112;-44
2021/12/04 12:16:24;;;;;;;3.70;0.90;;;;;;;;;;5034867;28;20148;-43
2021/12/04 12:19:00;;;;;;;5.13;1.00;;;;;;;;;;5040894;28;20116;-43
2021/12/04 12:21:31;;;;;;;2.75;0.73;;;;;;;;;;5038532;28;20041;-44
2021/12/04 12:24:32;;;;;;;2.92;1.02;;;;;;;;;;5032050;28;20159;-43
2021/12/04 12:33:25;;;;;;;1.70;0.60;;;;;;;;;;4687709;28;10000224;-43
2021/12/04 12:38:07;;;;;;;2.13;0.60;;;;;;;;;;5031108;28;20078;-43
2021/12/04 12:40:32;;;;;;;6.10;1.15;;;;;;;;;;5011975;28;20132;-42
2021/12/04 12:43:07;;;;;;;3.70;1.13;;;;;;;;;;5034437;28;20069;-43
2021/12/04 12:45:34;;;;;;;3.58;0.90;;;;;;;;;;5044239;28;20174;-43
2021/12/04 12:48:00;;;;;;;2.75;0.73;;;;;;;;;;5037043;28;20040;-43
2021/12/04 12:50:26;;;;;;;5.53;1.45;;;;;;;;;;5018158;28;20030;-45
2021/12/04 12:52:59;;;;;;;2.28;1.15;;;;;;;;;;5035011;28;20106;-43
2021/12/04 12:55:31;;;;;;;2.25;0.77;;;;;;;;;;5031426;28;20037;-42
2021/12/04 12:57:57;;;;;;;2.65;1.10;;;;;;;;;;4679178;28;10001139;-44
2021/12/04 13:13:52;;;;;;;6.88;1.38;;;;;;;;;;5032116;28;20048;-43
2021/12/04 13:16:20;;;;;;;3.15;1.00;;;;;;;;;;5044900;28;20029;-45
2021/12/04 13:18:50;;;;;;;6.20;1.13;;;;;;;;;;5036565;28;20033;-44
2021/12/04 13:21:15;;;;;;;1.33;0.90;;;;;;;;;;5036179;28;20047;-45
2021/12/04 13:23:46;;;;;;;1.95;1.17;;;;;;;;;;5040776;28;20037;-42
2021/12/04 13:26:12;;;;;;;3.40;0.88;;;;;;;;;;5039119;28;20481;-43
2021/12/04 13:28:40;;;;;;;1.42;0.70;;;;;;;;;;5038636;28;20038;-45
2021/12/04 13:31:05;;;;;;;2.53;1.05;;;;;;;;;;5040548;28;20025;-43
2021/12/04 13:33:32;;;;;;;1.60;0.80;;;;;;;;;;5023499;28;20021;-43
2021/12/04 13:35:57;;;;;;;3.55;1.35;;;;;;;;;;5030104;28;20037;-43
2021/12/04 13:38:24;;;;;;;2.10;0.85;;;;;;;;;;5039123;28;20033;-45
2021/12/04 13:40:50;;;;;;;9.70;1.10;;;;;;;;;;5029761;28;20037;-47
2021/12/04 13:43:16;;;;;;;2.38;1.38;;;;;;;;;;5035918;28;20043;-43
2021/12/04 13:45:41;;;;;;;2.00;0.77;;;;;;;;;;5043889;28;20187;-43
2021/12/04 13:48:08;;;;;;;4.45;1.67;;;;;;;;;;5040432;28;20040;-46
2021/12/04 14:05:13;;;;;;;1.23;1.08;;;;;;;;;;6283134;22;1318797;-42
2021/12/04 14:07:45;;;;;;;1.65;0.95;;;;;;;;;;6274180;22;20011;-42
2021/12/04 14:10:14;;;;;;;3.05;0.70;;;;;;;;;;6274477;22;20424;-42
2021/12/04 14:12:39;;;;;;;2.97;0.70;;;;;;;;;;6274366;22;20020;-43
2021/12/04 14:15:09;;;;;;;1.35;0.88;;;;;;;;;;6274744;22;20015;-42
2021/12/04 14:17:34;;;;;;;1.42;1.10;;;;;;;;;;6273824;22;20004;-43
2021/12/04 14:20:00;;;;;;;5.55;1.92;;;;;;;;;;6274757;22;20042;-43
2021/12/04 14:22:25;;;;;;;3.50;1.45;;;;;;;;;;6273106;22;20498;-44
2021/12/04 14:24:54;;;;;;;10.63;1.25;;;;;;;;;;6275022;22;20359;-42
2021/12/04 14:27:24;;;;;;;2.20;0.65;;;;;;;;;;6271915;22;20004;-42
2021/12/04 14:29:52;;;;;;;2.83;0.68;;;;;;;;;;6274445;22;20018;-42
2021/12/04 14:32:21;;;;;;;3.33;0.70;;;;;;;;;;6272271;22;20270;-44
2021/12/04 14:34:46;;;;;;;1.10;0.80;;;;;;;;;;6274377;22;20011;-42
2021/12/04 14:37:16;;;;;;;2.53;1.25;;;;;;;;;;6273319;22;20003;-42
2021/12/04 14:39:42;;;;;;;2.90;1.65;;;;;;;;;;6274867;22;20012;-42
2021/12/04 14:42:12;;;;;;;3.78;1.08;;;;;;;;;;6273835;22;20474;-43
2021/12/04 14:44:37;;;;;;;1.83;0.60;;;;;;;;;;6271951;22;20014;-43
2021/12/04 14:47:10;;;;;;;3.08;0.80;;;;;;;;;;6274570;22;20394;-44
2021/12/04 14:49:37;;;;;;;1.13;0.80;;;;;;;;;;6273301;22;20038;-42
2021/12/04 14:52:03;;;;;;;4.82;1.05;;;;;;;;;;6274578;22;20011;-42
2021/12/04 14:54:31;;;;;;;5.57;0.85;;;;;;;;;;6272547;22;20107;-44
2021/12/04 14:56:56;;;;;;;2.25;0.80;;;;;;;;;;6273507;22;20439;-44
2021/12/04 14:59:21;;;;;;;2.13;0.82;;;;;;;;;;6270115;22;20083;-43
2021/12/04 15:01:47;;;;;;;4.20;1.05;;;;;;;;;;6271162;22;20336;-42
2021/12/04 15:04:13;;;;;;;2.45;0.90;;;;;;;;;;6280275;22;20043;-44
2021/12/04 15:06:39;;;;;;;1.88;0.60;;;;;;;;;;6296018;22;20090;-42
2021/12/04 15:09:10;;;;;;;6.00;1.05;;;;;;;;;;6298835;22;20042;-43
2021/12/04 15:11:36;;;;;;;1.50;0.88;;;;;;;;;;6295169;22;20015;-43
2021/12/04 15:14:07;;;;;;;2.85;0.70;;;;;;;;;;6297162;22;20015;-43
2021/12/04 15:16:38;;;;;;;4.05;1.10;;;;;;;;;;6297944;22;20026;-44
2021/12/04 15:19:06;;;;;;;2.90;1.40;;;;;;;;;;6298138;22;20082;-45
2021/12/04 15:22:12;;;;;;;1.45;1.10;;;;;;;;;;6297232;22;20341;-43
2021/12/04 15:24:33;;;;;;;2.35;1.17;;;;;;;;;;6294913;22;20030;-43
2021/12/04 15:27:02;;;;;;;4.68;1.05;;;;;;;;;;6297464;22;20007;-43
2021/12/04 15:29:29;;;;;;;2.13;0.60;;;;;;;;;;6297622;22;20455;-44
2021/12/04 15:31:55;;;;;;;1.95;0.77;;;;;;;;;;6295538;22;20007;-46
2021/12/04 15:34:40;;;;;;;1.30;0.82;;;;;;;;;;6297442;22;20090;-43
2021/12/04 15:37:06;;;;;;;0.73;0.45;;;;;;;;;;6291845;22;20011;-43
2021/12/04 15:39:35;;;;;;;0.50;0.50;;;;;;;;;;6296115;22;20015;-44
2021/12/04 15:42:23;;;;;;;1.60;0.77;;;;;;;;;;6296085;22;20056;-43
2021/12/04 15:44:59;;;;;;;7.97;1.17;;;;;;;;;;6292354;22;20313;-44
2021/12/04 15:55:10;;;;;;;3.53;1.23;;;;;;;;;;6297744;22;20018;-45
2021/12/04 15:57:36;;;;;;;4.00;1.42;;;;;;;;;;6287992;22;20011;-44
2021/12/04 16:00:05;;;;;;;1.40;1.02;;;;;;;;;;6293657;22;20091;-43
2021/12/04 16:02:37;;;;;;;2.08;0.77;;;;;;;;;;6288090;22;20737;-44
2021/12/04 16:05:04;;;;;;;2.47;1.30;;;;;;;;;;6296045;22;20065;-43
2021/12/04 16:07:29;;;;;;;1.35;0.47;;;;;;;;;;6290499;22;20102;-42
2021/12/04 16:09:58;;;;;;;3.83;1.15;;;;;;;;;;6294660;22;20038;-43
2021/12/04 16:12:23;;;;;;;1.15;0.95;;;;;;;;;;6294352;22;20011;-42
2021/12/04 16:14:57;;;;;;;2.00;0.70;;;;;;;;;;6294302;22;20065;-43
2021/12/04 16:17:24;;;;;;;1.33;0.77;;;;;;;;;;6293435;22;20085;-43
2021/12/04 16:20:00;;;;;;;0.77;0.60;;;;;;;;;;6294203;22;20007;-43
2021/12/04 16:22:27;;;;;;;4.72;1.08;;;;;;;;;;6290514;22;20007;-42
2021/12/04 16:24:55;;;;;;;0.68;0.55;;;;;;;;;;6295012;22;20038;-42
2021/12/04 16:27:30;;;;;;;1.48;0.77;;;;;;;;;;6292517;22;20007;-42
2021/12/04 16:30:05;;;;;;;2.70;1.15;;;;;;;;;;6294350;22;20102;-43
2021/12/04 16:32:38;;;;;;;3.92;0.98;;;;;;;;;;6290113;22;20096;-46
2021/12/04 16:35:38;;;;;;;2.78;0.68;;;;;;;;;;6294226;22;20012;-43
2021/12/04 16:37:49;;;;;;;2.35;1.40;;;;;;;;;;6291716;22;19999;-42
2021/12/04 16:40:28;;;;;;;1.00;1.00;;;;;;;;;;6294028;22;20328;-41
2021/12/04 16:43:01;;;;;;;3.03;0.82;;;;;;;;;;6292061;22;20042;-43
2021/12/04 16:45:26;;;;;;;2.97;0.70;;;;;;;;;;6292761;22;20019;-42
2021/12/04 16:47:54;;;;;;;3.50;1.17;;;;;;;;;;6288622;22;20003;-43
2021/12/04 16:50:22;;;;;;;2.22;1.13;;;;;;;;;;6292246;22;20073;-43
2021/12/04 16:58:17;;;;;;;2.30;1.42;;;;;;;;;;6292143;22;20017;-43
2021/12/04 17:00:45;;;;;;;0.88;0.75;;;;;;;;;;6292791;22;20003;-42
2021/12/04 17:03:10;;;;;;;1.95;1.08;;;;;;;;;;6293452;22;20018;-42
2021/12/04 17:05:37;;;;;;;5.53;1.23;;;;;;;;;;6293387;22;20022;-42
2021/12/04 17:08:02;;;;;;;6.07;1.02;;;;;;;;;;6291849;22;20003;-42
2021/12/04 17:10:28;;;;;;;4.53;1.17;;;;;;;;;;6292807;22;20033;-42
2021/12/04 17:12:53;;;;;;;2.33;0.82;;;;;;;;;;6293002;22;20026;-42
2021/12/04 17:15:18;;;;;;;5.20;1.30;;;;;;;;;;6293101;22;20057;-41
2021/12/04 17:17:45;;;;;;;4.53;1.02;;;;;;;;;;6291427;22;20015;-42
2021/12/04 17:20:13;;;;;;;1.83;0.80;;;;;;;;;;6292920;22;20007;-42
2021/12/04 17:22:38;;;;;;;2.95;0.63;;;;;;;;;;6293419;22;20007;-42
2021/12/04 17:25:04;;;;;;;1.58;0.77;;;;;;;;;;6293328;22;20003;-42
2021/12/04 17:27:30;;;;;;;6.78;1.10;;;;;;;;;;6291940;22;20035;-43
2021/12/04 17:29:55;;;;;;;7.85;1.10;;;;;;;;;;6294274;22;20439;-42
2021/12/04 17:32:21;;;;;;;1.90;0.95;;;;;;;;;;6291572;22;20007;-43
2021/12/04 17:34:48;;;;;;;3.25;1.45;;;;;;;;;;6294194;22;20015;-42
2021/12/04 17:37:14;;;;;;;1.88;1.02;;;;;;;;;;6293072;22;20005;-42
2021/12/04 17:39:40;;;;;;;2.10;0.70;;;;;;;;;;6279614;22;20007;-41
2021/12/04 17:42:05;;;;;;;6.07;1.30;;;;;;;;;;6292918;22;20084;-42
2021/12/04 17:44:30;;;;;;;7.55;2.40;;;;;;;;;;6292549;22;20011;-42
2021/12/04 17:46:56;;;;;;;4.50;1.30;;;;;;;;;;6290669;22;20010;-41
2021/12/04 17:49:23;;;;;;;2.70;1.20;;;;;;;;;;6291852;22;20022;-41
2021/12/04 17:51:48;;;;;;;4.25;1.52;;;;;;;;;;6293430;22;20003;-42
2021/12/04 17:54:14;;;;;;;3.83;1.48;;;;;;;;;;6292784;22;20023;-42
2021/12/04 17:56:39;;;;;;;4.28;1.27;;;;;;;;;;6291337;22;20038;-43
2021/12/04 17:59:05;;;;;;;2.92;1.13;;;;;;;;;;6293438;22;20049;-43
2021/12/04 18:01:32;;;;;;;2.80;1.15;;;;;;;;;;6292139;22;20020;-42
2021/12/04 18:03:58;;;;;;;3.42;0.93;;;;;;;;;;6291885;22;20011;-42
2021/12/04 18:06:26;;;;;;;4.20;1.20;;;;;;;;;;6292643;22;20328;-42
2021/12/04 18:08:51;;;;;;;3.20;0.80;;;;;;;;;;6290399;22;20694;-41
2021/12/04 18:11:20;;;;;;;2.03;1.33;;;;;;;;;;6292976;22;20467;-41
2021/12/04 18:13:48;;;;;;;2.85;0.93;;;;;;;;;;6290821;22;20024;-43
2021/12/04 18:16:18;;;;;;;2.53;1.10;;;;;;;;;;6293159;22;20050;-41
2021/12/04 18:18:44;;;;;;;2.53;1.10;;;;;;;;;;6291139;22;20057;-42